sensor_id;sensor_type;location;lat;lon;timestamp;pressure;altitude;pressure_sealevel;temperature;humidity
19576;BME280;41589;51.196;7.074;2023-02-28T00:04:19;100252.28;;;2.58;47.99
19576;BME280;41589;51.196;7.074;2023-02-28T00:09:19;100243.47;;;2.49;48.26
19576;BME280;41589;51.196;7.074;2023-02-28T00:14:20;100257.41;;;2.52;48.25
19576;BME280;41589;51.196;7.074;2023-02-28T00:19:20;100250.66;;;2.53;48.90
19576;BME280;41589;51.196;7.074;2023-02-28T00:24:21;100252.66;;;2.53;48.63
19576;BME280;41589;51.196;7.074;2023-02-28T00:29:21;100244.38;;;2.60;48.77
19576;BME280;41589;51.196;7.074;2023-02-28T00:34:21;100253.91;;;2.59;49.17
19576;BME280;41589;51.196;7.074;2023-02-28T00:39:22;100240.06;;;2.66;49.82
19576;BME280;41589;51.196;7.074;2023-02-28T00:44:22;100240.84;;;2.63;49.25
19576;BME280;41589;51.196;7.074;2023-02-28T00:49:23;100229.63;;;2.52;49.62
19576;BME280;41589;51.196;7.074;2023-02-28T00:54:23;100242.41;;;2.60;50.26
19576;BME280;41589;51.196;7.074;2023-02-28T00:59:24;100233.00;;;2.72;50.11
19576;BME280;41589;51.196;7.074;2023-02-28T01:04:24;100237.34;;;2.70;50.14
19576;BME280;41589;51.196;7.074;2023-02-28T01:09:25;100240.97;;;2.77;49.97
19576;BME280;41589;51.196;7.074;2023-02-28T01:14:26;100236.66;;;2.83;49.85
19576;BME280;41589;51.196;7.074;2023-02-28T01:19:27;100238.56;;;2.76;49.71
19576;BME280;41589;51.196;7.074;2023-02-28T01:24:28;100217.81;;;2.62;49.57
19576;BME280;41589;51.196;7.074;2023-02-28T01:29:28;100236.38;;;2.55;50.56
19576;BME280;41589;51.196;7.074;2023-02-28T01:34:29;100239.81;;;2.41;50.48
19576;BME280;41589;51.196;7.074;2023-02-28T01:39:30;100234.28;;;2.45;50.96
19576;BME280;41589;51.196;7.074;2023-02-28T01:50:15;100234.84;;;2.24;51.05
19576;BME280;41589;51.196;7.074;2023-02-28T01:55:19;100215.75;;;2.19;50.49
19576;BME280;41589;51.196;7.074;2023-02-28T02:00:24;100217.66;;;2.11;51.38
19576;BME280;41589;51.196;7.074;2023-02-28T02:05:27;100216.34;;;2.01;50.95
19576;BME280;41589;51.196;7.074;2023-02-28T02:10:39;100210.09;;;2.08;50.71
19576;BME280;41589;51.196;7.074;2023-02-28T02:15:46;100205.13;;;1.94;50.95
19576;BME280;41589;51.196;7.074;2023-02-28T02:21:01;100197.31;;;2.03;51.16
19576;BME280;41589;51.196;7.074;2023-02-28T02:32:22;100198.75;;;1.90;51.41
19576;BME280;41589;51.196;7.074;2023-02-28T02:37:52;100192.00;;;1.88;51.42
19576;BME280;41589;51.196;7.074;2023-02-28T02:43:43;100192.53;;;1.67;51.23
19576;BME280;41589;51.196;7.074;2023-02-28T02:48:26;100181.41;;;1.67;51.29
19576;BME280;41589;51.196;7.074;2023-02-28T02:53:34;100183.81;;;1.68;50.94
19576;BME280;41589;51.196;7.074;2023-02-28T02:58:40;100190.97;;;1.69;50.64
19576;BME280;41589;51.196;7.074;2023-02-28T03:03:44;100190.16;;;1.69;50.48
19576;BME280;41589;51.196;7.074;2023-02-28T03:08:47;100179.44;;;1.67;51.19
19576;BME280;41589;51.196;7.074;2023-02-28T03:14:01;100200.88;;;1.70;51.14
19576;BME280;41589;51.196;7.074;2023-02-28T03:24:34;100196.91;;;1.41;52.24
19576;BME280;41589;51.196;7.074;2023-02-28T03:29:46;100193.88;;;1.50;51.81
19576;BME280;41589;51.196;7.074;2023-02-28T03:34:58;100178.66;;;1.40;51.51
19576;BME280;41589;51.196;7.074;2023-02-28T03:40:04;100186.97;;;1.37;51.76
19576;BME280;41589;51.196;7.074;2023-02-28T03:45:17;100184.50;;;1.32;50.91
19576;BME280;41589;51.196;7.074;2023-02-28T03:50:21;100191.19;;;1.27;51.39
19576;BME280;41589;51.196;7.074;2023-02-28T03:55:23;100195.06;;;1.23;50.62
19576;BME280;41589;51.196;7.074;2023-02-28T04:00:35;100193.03;;;1.19;50.47
19576;BME280;41589;51.196;7.074;2023-02-28T04:05:48;100198.13;;;1.14;49.94
19576;BME280;41589;51.196;7.074;2023-02-28T04:11:20;100201.91;;;1.29;49.14
19576;BME280;41589;51.196;7.074;2023-02-28T04:16:22;100201.22;;;1.35;49.42
19576;BME280;41589;51.196;7.074;2023-02-28T04:21:22;100203.88;;;1.28;49.17
19576;BME280;41589;51.196;7.074;2023-02-28T04:26:23;100207.88;;;1.31;49.21
19576;BME280;41589;51.196;7.074;2023-02-28T04:31:23;100202.13;;;1.16;49.14
19576;BME280;41589;51.196;7.074;2023-02-28T04:36:24;100213.66;;;1.22;48.75
19576;BME280;41589;51.196;7.074;2023-02-28T04:41:24;100209.25;;;1.17;48.54
19576;BME280;41589;51.196;7.074;2023-02-28T04:46:25;100213.84;;;1.06;49.04
19576;BME280;41589;51.196;7.074;2023-02-28T04:51:26;100217.03;;;1.08;48.81
19576;BME280;41589;51.196;7.074;2023-02-28T04:56:26;100216.88;;;0.98;48.84
19576;BME280;41589;51.196;7.074;2023-02-28T05:01:28;100210.44;;;1.16;49.39
19576;BME280;41589;51.196;7.074;2023-02-28T05:06:32;100218.91;;;1.27;48.25
19576;BME280;41589;51.196;7.074;2023-02-28T05:11:33;100218.38;;;1.18;48.57
19576;BME280;41589;51.196;7.074;2023-02-28T05:16:35;100225.31;;;1.31;48.68
19576;BME280;41589;51.196;7.074;2023-02-28T05:21:48;100215.28;;;1.50;48.90
19576;BME280;41589;51.196;7.074;2023-02-28T05:26:51;100221.19;;;1.48;48.54
19576;BME280;41589;51.196;7.074;2023-02-28T05:31:52;100228.69;;;1.44;48.67
19576;BME280;41589;51.196;7.074;2023-02-28T05:36:53;100228.03;;;1.28;48.80
19576;BME280;41589;51.196;7.074;2023-02-28T05:41:53;100226.47;;;1.30;48.45
19576;BME280;41589;51.196;7.074;2023-02-28T05:46:54;100227.63;;;1.26;48.91
19576;BME280;41589;51.196;7.074;2023-02-28T05:51:54;100234.72;;;1.23;48.78
19576;BME280;41589;51.196;7.074;2023-02-28T05:56:55;100239.00;;;1.21;48.29
19576;BME280;41589;51.196;7.074;2023-02-28T06:01:55;100237.31;;;0.89;48.41
19576;BME280;41589;51.196;7.074;2023-02-28T06:06:55;100240.28;;;1.00;48.38
19576;BME280;41589;51.196;7.074;2023-02-28T06:11:58;100245.88;;;0.81;48.31
19576;BME280;41589;51.196;7.074;2023-02-28T06:17:06;100243.94;;;0.81;48.21
19576;BME280;41589;51.196;7.074;2023-02-28T06:22:07;100241.47;;;0.76;47.96
19576;BME280;41589;51.196;7.074;2023-02-28T06:27:07;100254.09;;;0.74;47.88
19576;BME280;41589;51.196;7.074;2023-02-28T06:32:08;100252.00;;;0.67;47.50
19576;BME280;41589;51.196;7.074;2023-02-28T06:37:08;100264.44;;;0.77;47.38
19576;BME280;41589;51.196;7.074;2023-02-28T06:42:09;100266.47;;;0.80;47.18
19576;BME280;41589;51.196;7.074;2023-02-28T06:47:09;100266.66;;;0.68;46.41
19576;BME280;41589;51.196;7.074;2023-02-28T06:52:09;100280.81;;;0.85;46.12
19576;BME280;41589;51.196;7.074;2023-02-28T06:57:10;100280.78;;;0.82;45.83
19576;BME280;41589;51.196;7.074;2023-02-28T07:02:10;100280.03;;;1.08;45.48
19576;BME280;41589;51.196;7.074;2023-02-28T07:07:10;100289.03;;;1.24;44.93
19576;BME280;41589;51.196;7.074;2023-02-28T07:12:11;100288.22;;;1.24;44.80
19576;BME280;41589;51.196;7.074;2023-02-28T07:17:11;100295.53;;;1.35;43.70
19576;BME280;41589;51.196;7.074;2023-02-28T07:22:12;100286.78;;;1.60;43.51
19576;BME280;41589;51.196;7.074;2023-02-28T07:27:12;100299.25;;;1.73;43.09
19576;BME280;41589;51.196;7.074;2023-02-28T07:32:25;100302.16;;;1.80;42.47
19576;BME280;41589;51.196;7.074;2023-02-28T07:37:26;100298.44;;;1.99;42.13
19576;BME280;41589;51.196;7.074;2023-02-28T07:42:26;100301.97;;;1.96;41.94
19576;BME280;41589;51.196;7.074;2023-02-28T07:47:29;100303.75;;;2.41;41.79
19576;BME280;41589;51.196;7.074;2023-02-28T07:52:30;100293.28;;;2.64;41.56
19576;BME280;41589;51.196;7.074;2023-02-28T07:57:30;100286.00;;;2.90;41.16
19576;BME280;41589;51.196;7.074;2023-02-28T08:02:31;100294.84;;;3.03;40.33
19576;BME280;41589;51.196;7.074;2023-02-28T08:07:31;100308.88;;;3.17;39.67
19576;BME280;41589;51.196;7.074;2023-02-28T08:12:34;100301.88;;;3.34;39.68
19576;BME280;41589;51.196;7.074;2023-02-28T08:17:35;100306.38;;;3.49;39.65
19576;BME280;41589;51.196;7.074;2023-02-28T08:22:36;100302.19;;;3.76;38.82
19576;BME280;41589;51.196;7.074;2023-02-28T08:27:36;100292.66;;;3.81;38.40
19576;BME280;41589;51.196;7.074;2023-02-28T08:32:37;100292.50;;;4.22;39.26
19576;BME280;41589;51.196;7.074;2023-02-28T08:37:37;100301.38;;;4.49;37.97
19576;BME280;41589;51.196;7.074;2023-02-28T08:42:38;100305.41;;;4.62;37.48
19576;BME280;41589;51.196;7.074;2023-02-28T08:47:38;100297.84;;;4.73;37.49
19576;BME280;41589;51.196;7.074;2023-02-28T08:52:42;100300.69;;;4.91;36.50
19576;BME280;41589;51.196;7.074;2023-02-28T08:57:42;100299.91;;;5.05;37.31
19576;BME280;41589;51.196;7.074;2023-02-28T09:02:43;100311.84;;;4.98;36.63
19576;BME280;41589;51.196;7.074;2023-02-28T09:07:43;100299.06;;;4.76;35.58
19576;BME280;41589;51.196;7.074;2023-02-28T09:12:44;100294.97;;;4.45;36.55
19576;BME280;41589;51.196;7.074;2023-02-28T09:17:46;100280.25;;;4.44;35.34
19576;BME280;41589;51.196;7.074;2023-02-28T09:22:50;100288.31;;;4.85;35.38
19576;BME280;41589;51.196;7.074;2023-02-28T09:27:50;100282.75;;;5.06;35.30
19576;BME280;41589;51.196;7.074;2023-02-28T09:32:51;100283.97;;;5.16;34.59
19576;BME280;41589;51.196;7.074;2023-02-28T09:37:55;100291.13;;;4.88;34.22
19576;BME280;41589;51.196;7.074;2023-02-28T09:42:56;100288.75;;;5.26;35.40
19576;BME280;41589;51.196;7.074;2023-02-28T09:48:10;100299.91;;;5.58;35.45
19576;BME280;41589;51.196;7.074;2023-02-28T09:53:22;100290.75;;;5.47;34.15
19576;BME280;41589;51.196;7.074;2023-02-28T09:58:42;100295.91;;;5.06;34.05
19576;BME280;41589;51.196;7.074;2023-02-28T10:04:03;100317.47;;;5.16;34.92
19576;BME280;41589;51.196;7.074;2023-02-28T10:09:18;100301.09;;;4.89;34.51
19576;BME280;41589;51.196;7.074;2023-02-28T10:14:26;100294.31;;;5.05;34.72
19576;BME280;41589;51.196;7.074;2023-02-28T10:19:40;100300.72;;;5.23;34.12
19576;BME280;41589;51.196;7.074;2023-02-28T10:24:47;100294.34;;;5.12;34.25
19576;BME280;41589;51.196;7.074;2023-02-28T10:29:54;100295.09;;;4.98;34.30
19576;BME280;41589;51.196;7.074;2023-02-28T10:35:00;100290.72;;;4.90;34.51
19576;BME280;41589;51.196;7.074;2023-02-28T10:40:05;100284.38;;;5.43;35.21
19576;BME280;41589;51.196;7.074;2023-02-28T10:50:35;100272.81;;;6.64;34.19
19576;BME280;41589;51.196;7.074;2023-02-28T10:55:38;100280.72;;;5.71;33.57
19576;BME280;41589;51.196;7.074;2023-02-28T11:00:39;100252.78;;;5.71;33.61
19576;BME280;41589;51.196;7.074;2023-02-28T11:05:41;100275.97;;;5.71;34.09
19576;BME280;41589;51.196;7.074;2023-02-28T11:10:56;100273.56;;;5.73;34.05
19576;BME280;41589;51.196;7.074;2023-02-28T11:16:01;100250.69;;;6.14;34.25
19576;BME280;41589;51.196;7.074;2023-02-28T11:21:03;100255.06;;;6.19;32.58
19576;BME280;41589;51.196;7.074;2023-02-28T11:26:04;100252.00;;;5.74;33.02
19576;BME280;41589;51.196;7.074;2023-02-28T11:36:23;100245.31;;;6.52;32.99
19576;BME280;41589;51.196;7.074;2023-02-28T11:47:42;100246.75;;;5.97;33.27
19576;BME280;41589;51.196;7.074;2023-02-28T11:53:12;100261.19;;;5.67;33.50
19576;BME280;41589;51.196;7.074;2023-02-28T11:58:30;100248.75;;;5.97;34.03
19576;BME280;41589;51.196;7.074;2023-02-28T12:03:49;100246.81;;;5.83;33.54
19576;BME280;41589;51.196;7.074;2023-02-28T12:09:32;100245.59;;;5.77;33.60
19576;BME280;41589;51.196;7.074;2023-02-28T12:20:08;100242.41;;;5.78;33.20
19576;BME280;41589;51.196;7.074;2023-02-28T12:25:24;100226.72;;;6.09;33.66
19576;BME280;41589;51.196;7.074;2023-02-28T12:30:34;100214.91;;;5.59;32.39
19576;BME280;41589;51.196;7.074;2023-02-28T12:35:47;100228.88;;;5.63;32.32
19576;BME280;41589;51.196;7.074;2023-02-28T12:40:59;100215.31;;;5.58;32.77
19576;BME280;41589;51.196;7.074;2023-02-28T12:46:19;100197.63;;;5.96;33.48
19576;BME280;41589;51.196;7.074;2023-02-28T12:51:25;100180.56;;;6.53;33.13
19576;BME280;41589;51.196;7.074;2023-02-28T13:01:54;100193.66;;;5.97;32.02
19576;BME280;41589;51.196;7.074;2023-02-28T13:13:02;100161.03;;;6.50;33.06
19576;BME280;41589;51.196;7.074;2023-02-28T13:18:03;100147.63;;;6.13;32.49
19576;BME280;41589;51.196;7.074;2023-02-28T13:23:03;100163.94;;;6.35;32.45
19576;BME280;41589;51.196;7.074;2023-02-28T13:39:15;100148.31;;;6.31;32.41
19576;BME280;41589;51.196;7.074;2023-02-28T13:55:46;100132.25;;;6.49;32.95
19576;BME280;41589;51.196;7.074;2023-02-28T14:06:33;100112.56;;;6.63;32.52
19576;BME280;41589;51.196;7.074;2023-02-28T14:11:37;100114.88;;;6.76;32.33
19576;BME280;41589;51.196;7.074;2023-02-28T14:16:44;100113.91;;;6.93;32.34
19576;BME280;41589;51.196;7.074;2023-02-28T14:27:03;100105.66;;;7.16;31.92
19576;BME280;41589;51.196;7.074;2023-02-28T14:37:33;100114.22;;;7.02;32.20
19576;BME280;41589;51.196;7.074;2023-02-28T14:42:36;100105.28;;;6.77;32.08
19576;BME280;41589;51.196;7.074;2023-02-28T14:47:44;100111.41;;;7.02;32.05
19576;BME280;41589;51.196;7.074;2023-02-28T14:52:44;100106.84;;;7.19;31.21
19576;BME280;41589;51.196;7.074;2023-02-28T14:57:59;100100.16;;;7.09;31.97
19576;BME280;41589;51.196;7.074;2023-02-28T15:03:01;100109.78;;;7.08;31.50
19576;BME280;41589;51.196;7.074;2023-02-28T15:08:15;100102.00;;;6.82;31.46
19576;BME280;41589;51.196;7.074;2023-02-28T15:13:16;100091.28;;;7.18;32.08
19576;BME280;41589;51.196;7.074;2023-02-28T15:18:48;100091.16;;;7.29;32.90
19576;BME280;41589;51.196;7.074;2023-02-28T15:23:53;100097.09;;;6.96;32.59
19576;BME280;41589;51.196;7.074;2023-02-28T15:29:00;100095.19;;;6.83;33.59
19576;BME280;41589;51.196;7.074;2023-02-28T15:34:06;100095.66;;;6.78;34.08
19576;BME280;41589;51.196;7.074;2023-02-28T15:39:27;100092.53;;;6.68;34.10
19576;BME280;41589;51.196;7.074;2023-02-28T15:44:33;100082.91;;;6.73;34.01
19576;BME280;41589;51.196;7.074;2023-02-28T15:49:40;100097.53;;;6.43;34.60
19576;BME280;41589;51.196;7.074;2023-02-28T15:54:45;100103.59;;;6.31;34.85
19576;BME280;41589;51.196;7.074;2023-02-28T15:59:56;100094.41;;;6.37;35.04
19576;BME280;41589;51.196;7.074;2023-02-28T16:05:00;100103.38;;;6.00;35.97
19576;BME280;41589;51.196;7.074;2023-02-28T16:10:01;100117.81;;;5.88;35.94
19576;BME280;41589;51.196;7.074;2023-02-28T16:15:08;100117.56;;;5.58;36.45
19576;BME280;41589;51.196;7.074;2023-02-28T16:20:20;100104.69;;;5.78;36.86
19576;BME280;41589;51.196;7.074;2023-02-28T16:25:25;100118.81;;;5.46;37.49
19576;BME280;41589;51.196;7.074;2023-02-28T16:30:29;100129.25;;;5.17;38.40
19576;BME280;41589;51.196;7.074;2023-02-28T16:35:32;100134.03;;;5.13;38.98
19576;BME280;41589;51.196;7.074;2023-02-28T16:40:34;100142.84;;;4.86;39.39
19576;BME280;41589;51.196;7.074;2023-02-28T16:45:35;100138.84;;;5.09;39.32
19576;BME280;41589;51.196;7.074;2023-02-28T16:50:36;100156.41;;;4.91;39.81
19576;BME280;41589;51.196;7.074;2023-02-28T16:55:36;100151.19;;;4.97;39.65
19576;BME280;41589;51.196;7.074;2023-02-28T17:00:37;100154.78;;;4.98;39.78
19576;BME280;41589;51.196;7.074;2023-02-28T17:05:38;100152.00;;;5.05;39.89
19576;BME280;41589;51.196;7.074;2023-02-28T17:10:39;100161.19;;;4.84;40.14
19576;BME280;41589;51.196;7.074;2023-02-28T17:15:41;100173.13;;;4.70;40.58
19576;BME280;41589;51.196;7.074;2023-02-28T17:20:41;100174.72;;;4.64;41.19
19576;BME280;41589;51.196;7.074;2023-02-28T17:25:42;100174.31;;;4.73;40.98
19576;BME280;41589;51.196;7.074;2023-02-28T17:30:53;100166.75;;;4.59;41.22
19576;BME280;41589;51.196;7.074;2023-02-28T17:35:53;100190.66;;;4.49;41.51
19576;BME280;41589;51.196;7.074;2023-02-28T17:40:54;100187.84;;;4.56;41.54
19576;BME280;41589;51.196;7.074;2023-02-28T17:45:58;100190.25;;;4.54;41.83
19576;BME280;41589;51.196;7.074;2023-02-28T17:50:58;100187.47;;;4.65;41.90
19576;BME280;41589;51.196;7.074;2023-02-28T17:55:59;100194.19;;;4.28;42.44
19576;BME280;41589;51.196;7.074;2023-02-28T18:01:00;100199.41;;;4.48;42.35
19576;BME280;41589;51.196;7.074;2023-02-28T18:06:01;100196.19;;;4.28;42.63
19576;BME280;41589;51.196;7.074;2023-02-28T18:11:01;100192.19;;;4.29;42.90
19576;BME280;41589;51.196;7.074;2023-02-28T18:16:02;100183.41;;;4.23;42.66
19576;BME280;41589;51.196;7.074;2023-02-28T18:21:07;100187.81;;;4.31;43.06
19576;BME280;41589;51.196;7.074;2023-02-28T18:26:08;100185.00;;;4.21;43.13
19576;BME280;41589;51.196;7.074;2023-02-28T18:31:10;100194.16;;;4.18;43.46
19576;BME280;41589;51.196;7.074;2023-02-28T18:36:11;100197.72;;;4.07;43.56
19576;BME280;41589;51.196;7.074;2023-02-28T18:41:12;100210.84;;;4.07;43.79
19576;BME280;41589;51.196;7.074;2023-02-28T18:46:17;100195.34;;;4.24;43.39
19576;BME280;41589;51.196;7.074;2023-02-28T18:51:20;100203.75;;;4.27;43.18
19576;BME280;41589;51.196;7.074;2023-02-28T18:56:23;100210.50;;;4.33;43.45
19576;BME280;41589;51.196;7.074;2023-02-28T19:01:25;100208.50;;;4.23;43.21
19576;BME280;41589;51.196;7.074;2023-02-28T19:06:33;100203.34;;;4.25;43.17
19576;BME280;41589;51.196;7.074;2023-02-28T19:11:39;100204.94;;;4.33;43.67
19576;BME280;41589;51.196;7.074;2023-02-28T19:16:40;100204.09;;;4.19;43.75
19576;BME280;41589;51.196;7.074;2023-02-28T19:21:43;100207.28;;;4.17;43.74
19576;BME280;41589;51.196;7.074;2023-02-28T19:26:44;100201.31;;;4.22;43.89
19576;BME280;41589;51.196;7.074;2023-02-28T19:31:44;100206.47;;;4.10;44.00
19576;BME280;41589;51.196;7.074;2023-02-28T19:36:45;100211.97;;;3.92;44.18
19576;BME280;41589;51.196;7.074;2023-02-28T19:41:45;100212.78;;;3.99;43.78
19576;BME280;41589;51.196;7.074;2023-02-28T19:46:45;100223.50;;;3.94;44.33
19576;BME280;41589;51.196;7.074;2023-02-28T19:51:46;100229.88;;;3.91;44.54
19576;BME280;41589;51.196;7.074;2023-02-28T19:56:47;100228.31;;;4.00;44.24
19576;BME280;41589;51.196;7.074;2023-02-28T20:01:47;100224.28;;;3.91;44.62
19576;BME280;41589;51.196;7.074;2023-02-28T20:06:49;100227.91;;;3.95;44.47
19576;BME280;41589;51.196;7.074;2023-02-28T20:11:49;100223.50;;;3.94;44.64
19576;BME280;41589;51.196;7.074;2023-02-28T20:16:50;100221.38;;;3.73;44.93
19576;BME280;41589;51.196;7.074;2023-02-28T20:21:51;100223.81;;;3.74;45.26
19576;BME280;41589;51.196;7.074;2023-02-28T20:26:52;100223.81;;;3.78;44.99
19576;BME280;41589;51.196;7.074;2023-02-28T20:31:53;100222.97;;;3.70;45.31
19576;BME280;41589;51.196;7.074;2023-02-28T20:36:54;100227.72;;;3.63;45.25
19576;BME280;41589;51.196;7.074;2023-02-28T20:41:58;100221.75;;;3.64;45.58
19576;BME280;41589;51.196;7.074;2023-02-28T20:46:59;100223.25;;;3.51;45.92
19576;BME280;41589;51.196;7.074;2023-02-28T20:51:59;100213.75;;;3.56;45.51
19576;BME280;41589;51.196;7.074;2023-02-28T20:57:00;100208.97;;;3.53;46.13
19576;BME280;41589;51.196;7.074;2023-02-28T21:02:01;100210.91;;;3.48;45.96
19576;BME280;41589;51.196;7.074;2023-02-28T21:07:01;100214.50;;;3.49;45.99
19576;BME280;41589;51.196;7.074;2023-02-28T21:12:01;100216.81;;;3.36;46.08
19576;BME280;41589;51.196;7.074;2023-02-28T21:17:02;100221.56;;;3.36;46.34
19576;BME280;41589;51.196;7.074;2023-02-28T21:22:02;100211.50;;;3.20;46.47
19576;BME280;41589;51.196;7.074;2023-02-28T21:27:03;100220.59;;;3.10;46.91
19576;BME280;41589;51.196;7.074;2023-02-28T21:32:03;100211.03;;;3.08;47.43
19576;BME280;41589;51.196;7.074;2023-02-28T21:37:05;100225.00;;;3.11;47.02
19576;BME280;41589;51.196;7.074;2023-02-28T21:42:05;100227.84;;;3.22;46.74
19576;BME280;41589;51.196;7.074;2023-02-28T21:47:05;100232.22;;;3.23;46.87
19576;BME280;41589;51.196;7.074;2023-02-28T21:52:06;100222.63;;;3.17;47.15
19576;BME280;41589;51.196;7.074;2023-02-28T21:57:06;100228.25;;;3.24;46.70
19576;BME280;41589;51.196;7.074;2023-02-28T22:02:08;100223.34;;;3.07;47.06
19576;BME280;41589;51.196;7.074;2023-02-28T22:07:09;100228.56;;;3.12;46.78
19576;BME280;41589;51.196;7.074;2023-02-28T22:12:10;100216.19;;;3.09;46.95
19576;BME280;41589;51.196;7.074;2023-02-28T22:17:10;100216.97;;;3.03;47.12
19576;BME280;41589;51.196;7.074;2023-02-28T22:22:11;100229.63;;;3.00;46.83
19576;BME280;41589;51.196;7.074;2023-02-28T22:27:13;100213.72;;;2.97;47.39
19576;BME280;41589;51.196;7.074;2023-02-28T22:32:14;100213.31;;;2.91;46.64
19576;BME280;41589;51.196;7.074;2023-02-28T22:37:14;100217.31;;;2.98;46.87
19576;BME280;41589;51.196;7.074;2023-02-28T22:42:17;100224.84;;;2.93;47.09
19576;BME280;41589;51.196;7.074;2023-02-28T22:47:18;100222.31;;;2.78;46.95
19576;BME280;41589;51.196;7.074;2023-02-28T22:52:18;100230.22;;;2.72;47.13
19576;BME280;41589;51.196;7.074;2023-02-28T22:57:18;100225.22;;;2.92;46.87
19576;BME280;41589;51.196;7.074;2023-02-28T23:02:19;100222.06;;;2.97;46.81
19576;BME280;41589;51.196;7.074;2023-02-28T23:07:20;100223.16;;;2.85;46.69
19576;BME280;41589;51.196;7.074;2023-02-28T23:12:20;100224.03;;;2.93;46.95
19576;BME280;41589;51.196;7.074;2023-02-28T23:17:21;100224.91;;;3.04;46.53
19576;BME280;41589;51.196;7.074;2023-02-28T23:22:21;100208.22;;;3.01;46.62
19576;BME280;41589;51.196;7.074;2023-02-28T23:27:21;100211.03;;;3.08;46.84
19576;BME280;41589;51.196;7.074;2023-02-28T23:32:23;100205.94;;;3.20;46.48
19576;BME280;41589;51.196;7.074;2023-02-28T23:37:25;100222.22;;;3.11;45.84
19576;BME280;41589;51.196;7.074;2023-02-28T23:42:25;100223.28;;;3.00;46.34
19576;BME280;41589;51.196;7.074;2023-02-28T23:47:26;100237.53;;;2.91;46.55
19576;BME280;41589;51.196;7.074;2023-02-28T23:52:26;100235.47;;;2.84;46.16
19576;BME280;41589;51.196;7.074;2023-02-28T23:57:27;100237.44;;;2.80;46.14
